Time;durP1;ratioP1;P1;durP2;ratioP2;P2;SDS_P1;SDS_P2;PMS_P1;PMS_P2;Temp;Humidity;BMP_temperature;BMP_pressure;BME280_temperature;BME280_humidity;BME280_pressure;Samples;Min_cycle;Max_cycle;Signal;HPM_P1;HPM_P2
2021/12/16 00:06:53;;;;;;;25.02;11.48;;;7.10;85.90;;;;;;5077335;28;19912;-82
2021/12/16 00:09:13;;;;;;;23.90;11.32;;;7.20;86.10;;;;;;5077013;28;20454;-82
2021/12/16 00:31:04;;;;;;;25.52;10.40;;;7.40;85.60;;;;;;5077377;28;20027;-82
2021/12/16 00:33:39;;;;;;;18.77;9.18;;;7.50;85.60;;;;;;5089597;28;20491;-83
2021/12/16 00:36:08;;;;;;;18.70;9.40;;;7.50;85.30;;;;;;5095488;28;20031;-81
2021/12/16 00:38:34;;;;;;;20.50;9.65;;;7.50;85.60;;;;;;5078838;28;20030;-82
2021/12/16 00:41:01;;;;;;;24.92;10.35;;;7.50;85.60;;;;;;5095295;28;20055;-82
2021/12/16 00:54:13;;;;;;;19.23;9.82;;;7.60;85.30;;;;;;5076334;28;20086;-82
2021/12/16 00:56:58;;;;;;;16.33;8.00;;;7.70;85.10;;;;;;5076077;28;20024;-82
2021/12/16 00:59:27;;;;;;;15.52;8.23;;;7.60;85.20;;;;;;5076284;28;20021;-82
2021/12/16 01:02:07;;;;;;;18.30;9.27;;;7.50;85.60;;;;;;5090495;28;20028;-82
2021/12/16 01:50:31;;;;;;;19.80;9.30;;;7.40;86.00;;;;;;5075655;28;20043;-81
2021/12/16 01:55:56;;;;;;;19.90;9.82;;;7.40;86.30;;;;;;5069447;28;20513;-82
2021/12/16 01:58:24;;;;;;;16.60;8.52;;;7.60;85.90;;;;;;5057277;28;20036;-82
2021/12/16 02:00:59;;;;;;;18.65;9.60;;;7.60;85.40;;;;;;5074914;28;20115;-82
2021/12/16 02:03:39;;;;;;;20.38;9.57;;;7.70;85.60;;;;;;5075593;28;20024;-82
2021/12/16 02:06:25;;;;;;;18.08;9.30;;;7.70;85.50;;;;;;5075239;28;20032;-82
2021/12/16 02:08:55;;;;;;;19.88;9.25;;;7.80;85.40;;;;;;5075341;28;20032;-82
2021/12/16 02:36:14;;;;;;;23.02;9.65;;;7.80;84.90;;;;;;5010612;28;20022;-82
2021/12/16 02:38:46;;;;;;;19.15;9.60;;;7.80;84.90;;;;;;5064938;28;20070;-82
2021/12/16 02:41:12;;;;;;;18.27;9.30;;;7.70;85.00;;;;;;5094882;28;20059;-82
2021/12/16 02:44:13;;;;;;;23.70;10.98;;;7.70;85.00;;;;;;5077035;28;20032;-82
2021/12/16 02:49:25;;;;;;;19.20;10.35;;;7.80;85.10;;;;;;5066572;28;20150;-82
2021/12/16 02:51:51;;;;;;;24.08;10.73;;;7.70;84.60;;;;;;5074647;28;20042;-82
2021/12/16 02:54:21;;;;;;;17.88;9.57;;;7.70;85.30;;;;;;5056957;28;20020;-82
2021/12/16 02:56:46;;;;;;;20.35;10.02;;;7.60;85.00;;;;;;5062725;28;20116;-82
2021/12/16 02:59:15;;;;;;;23.83;10.85;;;7.60;85.50;;;;;;5056538;28;20079;-82
2021/12/16 03:01:44;;;;;;;17.75;8.95;;;7.60;85.30;;;;;;5074601;28;20082;-82
2021/12/16 03:04:13;;;;;;;25.23;12.45;;;7.50;85.50;;;;;;5056757;28;20028;-83
2021/12/16 03:06:42;;;;;;;23.23;11.10;;;7.50;85.60;;;;;;5094698;28;20020;-82
2021/12/16 03:09:11;;;;;;;23.15;10.23;;;7.50;85.70;;;;;;5081118;28;20029;-82
2021/12/16 03:19:27;;;;;;;26.40;11.80;;;7.40;85.80;;;;;;5074363;28;20418;-82
2021/12/16 03:21:56;;;;;;;17.83;10.00;;;7.40;85.90;;;;;;5074155;28;20040;-82
2021/12/16 03:35:27;;;;;;;18.13;9.07;;;7.30;86.20;;;;;;5084641;28;20035;-82
2021/12/16 03:37:55;;;;;;;24.95;10.13;;;7.30;86.20;;;;;;5095997;28;20063;-83
2021/12/16 03:40:21;;;;;;;20.40;9.73;;;7.40;86.00;;;;;;5098108;28;20024;-83
2021/12/16 03:42:51;;;;;;;23.60;10.50;;;7.50;85.80;;;;;;5079269;28;20158;-83
2021/12/16 03:48:41;;;;;;;24.58;11.20;;;7.50;85.60;;;;;;5070420;28;20411;-82
2021/12/16 03:51:35;;;;;;;23.67;10.82;;;7.50;85.70;;;;;;5077620;28;20056;-82
2021/12/16 03:54:14;;;;;;;27.90;13.05;;;7.60;85.60;;;;;;5073342;28;20147;-82
2021/12/16 03:57:00;;;;;;;28.98;11.50;;;7.60;85.70;;;;;;5077630;28;20363;-83
2021/12/16 03:59:30;;;;;;;27.60;12.50;;;7.50;85.60;;;;;;5077023;28;20189;-83
2021/12/16 04:01:58;;;;;;;26.38;11.82;;;7.60;85.80;;;;;;5077155;28;20035;-82
2021/12/16 04:04:24;;;;;;;25.33;11.77;;;7.70;85.40;;;;;;5077493;28;20039;-83
2021/12/16 04:06:50;;;;;;;27.45;13.70;;;7.70;85.50;;;;;;5077441;28;20105;-83
2021/12/16 04:09:17;;;;;;;22.92;9.23;;;7.60;85.50;;;;;;5077169;28;20055;-83
2021/12/16 04:11:50;;;;;;;23.88;11.35;;;7.60;85.50;;;;;;5077252;28;20025;-82
2021/12/16 04:14:19;;;;;;;28.67;11.55;;;7.50;85.80;;;;;;5073823;28;20064;-82
2021/12/16 04:16:51;;;;;;;25.52;12.15;;;7.50;85.90;;;;;;5077214;28;20156;-83
2021/12/16 04:19:28;;;;;;;27.85;11.65;;;7.50;85.80;;;;;;5076870;28;20031;-82
2021/12/16 04:21:57;;;;;;;23.98;11.35;;;7.50;85.60;;;;;;5059498;28;20048;-82
2021/12/16 04:24:23;;;;;;;23.35;10.68;;;7.60;85.60;;;;;;5059211;28;20097;-83
2021/12/16 04:26:52;;;;;;;21.23;9.40;;;7.60;85.40;;;;;;5058869;28;20025;-82
2021/12/16 04:29:18;;;;;;;18.92;8.13;;;7.50;85.60;;;;;;5077090;28;20037;-82
2021/12/16 04:31:45;;;;;;;25.30;12.27;;;7.50;85.70;;;;;;5076918;28;20021;-83
2021/12/16 04:34:13;;;;;;;19.58;9.73;;;7.50;86.00;;;;;;5079819;28;20022;-83
2021/12/16 04:36:41;;;;;;;22.70;11.32;;;7.50;86.00;;;;;;5096818;28;20047;-83
2021/12/16 04:39:12;;;;;;;22.00;11.48;;;7.60;85.80;;;;;;5078308;28;20047;-83
2021/12/16 04:41:38;;;;;;;24.08;11.23;;;7.60;85.80;;;;;;5076660;28;20475;-83
2021/12/16 04:44:09;;;;;;;22.00;10.82;;;7.70;85.60;;;;;;5076677;28;20028;-83
2021/12/16 04:46:35;;;;;;;18.58;9.05;;;7.70;85.50;;;;;;5058220;28;20493;-83
2021/12/16 04:49:01;;;;;;;20.67;10.55;;;7.80;85.20;;;;;;5076364;28;20032;-82
2021/12/16 04:51:29;;;;;;;19.48;8.38;;;7.80;85.00;;;;;;5076496;28;20020;-83
2021/12/16 04:53:55;;;;;;;22.65;10.90;;;7.70;85.00;;;;;;5076530;28;20521;-82
2021/12/16 04:56:21;;;;;;;21.30;10.93;;;7.70;85.20;;;;;;5076355;28;20024;-82
2021/12/16 04:58:50;;;;;;;24.00;9.93;;;7.70;85.50;;;;;;5076405;28;20032;-82
2021/12/16 05:01:17;;;;;;;20.85;10.60;;;7.80;85.30;;;;;;5058253;28;20036;-82
2021/12/16 05:03:43;;;;;;;21.20;10.18;;;7.80;85.40;;;;;;5076011;28;20410;-82
2021/12/16 05:06:10;;;;;;;18.67;10.65;;;7.90;85.10;;;;;;5076390;28;20451;-82
2021/12/16 05:08:37;;;;;;;18.55;9.30;;;7.90;84.80;;;;;;5076808;28;20032;-82
2021/12/16 05:11:04;;;;;;;20.42;10.50;;;7.90;84.70;;;;;;5096517;28;20069;-82
2021/12/16 05:13:31;;;;;;;21.42;10.25;;;8.00;84.90;;;;;;5077858;28;20043;-83
2021/12/16 05:16:02;;;;;;;23.88;10.23;;;8.00;84.70;;;;;;5096483;28;20504;-82
2021/12/16 05:18:34;;;;;;;24.38;10.77;;;7.90;84.80;;;;;;5081646;28;20107;-83
2021/12/16 05:21:07;;;;;;;19.27;9.63;;;7.90;85.10;;;;;;5081180;28;20059;-82
2021/12/16 05:26:20;;;;;;;18.85;9.32;;;7.90;84.90;;;;;;5096102;28;20505;-82
2021/12/16 05:28:52;;;;;;;18.13;9.30;;;7.90;84.70;;;;;;5096137;28;20032;-82
2021/12/16 05:31:20;;;;;;;22.65;9.55;;;7.80;85.40;;;;;;5095487;28;20077;-83
2021/12/16 05:33:50;;;;;;;20.45;9.93;;;7.90;85.20;;;;;;5093937;28;20045;-82
2021/12/16 05:36:16;;;;;;;;;;;7.90;85.00;;;;;;5058193;28;20029;-82
2021/12/16 05:38:41;;;;;;;23.58;10.05;;;7.90;85.20;;;;;;5080109;28;19957;-83
2021/12/16 05:41:09;;;;;;;21.10;9.63;;;8.00;85.00;;;;;;5085704;28;20071;-83
2021/12/16 05:43:36;;;;;;;25.30;10.60;;;8.10;85.00;;;;;;5075498;28;20032;-81
2021/12/16 05:46:03;;;;;;;21.83;8.90;;;8.20;84.70;;;;;;5075451;28;20055;-81
2021/12/16 05:53:50;;;;;;;21.27;11.25;;;7.90;85.10;;;;;;5072188;28;20379;-83
2021/12/16 05:56:27;;;;;;;23.77;11.98;;;7.70;85.60;;;;;;5061261;28;20025;-85
2021/12/16 05:58:53;;;;;;;20.27;10.82;;;7.60;86.10;;;;;;5052648;28;20433;-86
2021/12/16 06:01:28;;;;;;;22.45;10.63;;;7.80;86.10;;;;;;5052041;28;20017;-83
2021/12/16 06:03:54;;;;;;;23.25;11.70;;;7.80;85.70;;;;;;5052142;28;20815;-81
2021/12/16 06:06:21;;;;;;;18.63;9.68;;;7.90;85.40;;;;;;5051359;28;20021;-79
2021/12/16 06:08:48;;;;;;;20.33;10.35;;;7.90;85.30;;;;;;5067589;28;20503;-79
2021/12/16 06:11:22;;;;;;;20.10;10.02;;;8.00;84.90;;;;;;5050302;28;20021;-79
2021/12/16 06:14:10;;;;;;;22.52;9.63;;;8.00;85.10;;;;;;5067381;28;20029;-80
2021/12/16 06:27:41;;;;;;;21.38;9.85;;;8.20;84.80;;;;;;5070598;28;20027;-79
2021/12/16 06:30:11;;;;;;;18.42;8.93;;;8.20;84.60;;;;;;5071491;28;20395;-79
2021/12/16 06:32:37;;;;;;;19.17;9.57;;;8.30;84.40;;;;;;5051620;28;20025;-79
2021/12/16 06:35:04;;;;;;;20.70;10.32;;;8.20;84.40;;;;;;5053153;28;20125;-76
2021/12/16 06:37:30;;;;;;;17.95;9.57;;;8.20;84.20;;;;;;5066005;28;20031;-79
2021/12/16 06:39:56;;;;;;;19.77;11.35;;;8.20;84.50;;;;;;5071238;28;20093;-79
2021/12/16 06:42:23;;;;;;;21.65;10.70;;;8.20;84.50;;;;;;5052205;28;20108;-76
2021/12/16 06:44:54;;;;;;;18.92;10.13;;;8.10;84.70;;;;;;5066413;28;20043;-79
2021/12/16 06:47:26;;;;;;;19.05;10.35;;;8.20;84.70;;;;;;5069946;28;20028;-79
2021/12/16 06:49:54;;;;;;;22.33;11.18;;;8.20;84.60;;;;;;5070595;28;20116;-78
2021/12/16 06:52:25;;;;;;;19.90;10.07;;;8.20;84.50;;;;;;5069258;28;20060;-79
2021/12/16 06:55:14;;;;;;;24.48;11.65;;;8.20;84.50;;;;;;5070779;28;20036;-79
2021/12/16 06:57:44;;;;;;;21.38;11.35;;;8.20;84.70;;;;;;5067420;28;20033;-79
2021/12/16 07:00:22;;;;;;;21.80;11.13;;;8.30;84.50;;;;;;5051008;28;20033;-79
2021/12/16 07:02:59;;;;;;;19.15;8.88;;;8.20;84.40;;;;;;5050820;28;20120;-79
2021/12/16 07:05:30;;;;;;;22.92;9.07;;;8.20;85.00;;;;;;5037314;28;20372;-79
2021/12/16 07:07:57;;;;;;;18.45;7.65;;;8.20;85.10;;;;;;5037427;28;20035;-79
2021/12/16 07:10:29;;;;;;;15.80;7.88;;;8.00;84.80;;;;;;5051858;28;20398;-79
2021/12/16 07:12:57;;;;;;;18.50;9.30;;;8.00;84.80;;;;;;5057386;28;20082;-79
2021/12/16 07:15:27;;;;;;;19.38;9.90;;;8.10;85.20;;;;;;5046697;28;20026;-79
2021/12/16 07:17:55;;;;;;;12.93;7.05;;;8.20;84.90;;;;;;5037523;28;20030;-79
2021/12/16 07:20:25;;;;;;;19.70;8.85;;;8.00;84.90;;;;;;5037041;28;20033;-79
2021/12/16 07:22:50;;;;;;;19.85;8.50;;;8.10;85.10;;;;;;5037052;28;20021;-79
2021/12/16 07:25:16;;;;;;;18.85;8.70;;;8.10;85.20;;;;;;5037311;28;20040;-80
2021/12/16 07:27:43;;;;;;;19.90;10.70;;;8.20;85.20;;;;;;5037280;28;20017;-79
2021/12/16 07:30:12;;;;;;;18.23;8.30;;;8.20;85.10;;;;;;5036014;28;20134;-78
2021/12/16 07:32:38;;;;;;;15.98;8.15;;;8.10;85.00;;;;;;5037369;28;20083;-79
2021/12/16 07:35:08;;;;;;;21.60;9.35;;;8.00;85.20;;;;;;5056253;28;20032;-79
2021/12/16 07:37:33;;;;;;;19.00;8.70;;;8.00;85.10;;;;;;5076886;28;20030;-79
2021/12/16 07:40:05;;;;;;;21.85;9.68;;;7.90;85.30;;;;;;5076988;28;20043;-79
2021/12/16 07:42:42;;;;;;;14.38;7.93;;;8.00;85.50;;;;;;5050437;28;20025;-79
2021/12/16 07:45:08;;;;;;;20.25;9.10;;;8.10;85.30;;;;;;5056941;28;20033;-79
2021/12/16 07:47:34;;;;;;;16.05;8.02;;;8.10;85.20;;;;;;5055200;28;20056;-79
2021/12/16 07:50:17;;;;;;;18.88;9.55;;;8.10;85.00;;;;;;5036843;28;20147;-79
2021/12/16 07:52:43;;;;;;;20.75;8.05;;;8.00;85.10;;;;;;5036627;28;20041;-79
2021/12/16 07:55:11;;;;;;;18.38;8.98;;;8.00;85.00;;;;;;5036818;28;20091;-78
2021/12/16 07:57:37;;;;;;;13.55;7.15;;;8.20;85.30;;;;;;5036539;28;20117;-79
2021/12/16 08:00:10;;;;;;;17.33;8.95;;;8.10;84.80;;;;;;5036749;28;20061;-79
2021/12/16 08:02:37;;;;;;;16.33;9.18;;;8.00;85.00;;;;;;5036463;28;20032;-79
2021/12/16 08:05:04;;;;;;;16.40;8.30;;;8.00;85.10;;;;;;5036487;28;20085;-79
2021/12/16 08:07:30;;;;;;;18.17;8.65;;;8.00;85.30;;;;;;5036482;28;20026;-79
2021/12/16 08:09:56;;;;;;;14.00;6.78;;;8.00;85.30;;;;;;5036611;28;20041;-79
2021/12/16 08:12:21;;;;;;;19.10;10.18;;;7.90;85.00;;;;;;5036378;28;20029;-79
2021/12/16 08:14:48;;;;;;;14.45;7.85;;;7.90;85.00;;;;;;5035525;28;20154;-79
2021/12/16 08:17:14;;;;;;;13.75;7.05;;;7.90;85.00;;;;;;5035795;28;20028;-79
2021/12/16 08:19:41;;;;;;;15.82;7.57;;;7.90;85.00;;;;;;5036472;28;20033;-80
2021/12/16 08:22:07;;;;;;;13.30;6.32;;;7.90;85.00;;;;;;5036211;28;20052;-79
2021/12/16 08:24:33;;;;;;;14.73;7.93;;;7.80;84.90;;;;;;5036299;28;20037;-79
2021/12/16 08:26:59;;;;;;;9.38;6.55;;;7.80;85.00;;;;;;5034660;28;20045;-79
2021/12/16 08:29:25;;;;;;;12.77;7.05;;;7.80;84.60;;;;;;5036006;28;20025;-79
2021/12/16 08:31:52;;;;;;;21.58;8.95;;;7.80;84.70;;;;;;5035799;28;20321;-79
2021/12/16 08:34:18;;;;;;;18.55;9.10;;;7.90;84.90;;;;;;5043895;28;20024;-79
2021/12/16 08:36:44;;;;;;;13.82;7.00;;;7.90;84.50;;;;;;5075768;28;20020;-79
2021/12/16 08:39:11;;;;;;;17.75;7.82;;;7.90;84.00;;;;;;5076101;28;20028;-79
2021/12/16 08:41:42;;;;;;;12.88;7.43;;;8.00;84.40;;;;;;5049743;28;20601;-79
2021/12/16 08:44:08;;;;;;;13.60;8.70;;;8.00;84.10;;;;;;5046123;28;20133;-79
2021/12/16 08:46:40;;;;;;;12.77;7.03;;;8.00;84.00;;;;;;5054394;28;20040;-79
2021/12/16 08:49:06;;;;;;;8.55;5.35;;;8.10;83.20;;;;;;5055388;28;20017;-79
2021/12/16 08:51:36;;;;;;;14.13;6.50;;;8.10;83.20;;;;;;5054117;28;20449;-79
2021/12/16 08:54:03;;;;;;;11.50;6.55;;;8.20;82.80;;;;;;5055751;28;20463;-79
2021/12/16 08:56:30;;;;;;;15.40;6.70;;;8.20;82.70;;;;;;5048340;28;20468;-79
2021/12/16 08:58:57;;;;;;;12.13;6.22;;;8.20;82.60;;;;;;5035695;28;20151;-79
2021/12/16 09:01:27;;;;;;;9.57;5.55;;;8.30;82.40;;;;;;5035576;28;20021;-79
2021/12/16 09:03:54;;;;;;;8.65;5.20;;;8.30;82.10;;;;;;5035470;28;20029;-79
2021/12/16 09:06:21;;;;;;;11.20;5.65;;;8.20;81.80;;;;;;5053638;28;20044;-79
2021/12/16 09:08:47;;;;;;;11.13;6.88;;;8.20;81.80;;;;;;5055417;28;20445;-79
2021/12/16 09:11:19;;;;;;;11.73;6.63;;;8.20;81.90;;;;;;5055254;28;20107;-79
2021/12/16 09:13:46;;;;;;;14.93;6.70;;;8.30;82.20;;;;;;5054520;28;20021;-79
2021/12/16 09:16:14;;;;;;;9.02;5.45;;;8.30;81.90;;;;;;5050314;28;20484;-78
2021/12/16 09:18:42;;;;;;;12.70;6.93;;;8.30;81.30;;;;;;5035268;28;20036;-79
2021/12/16 09:21:25;;;;;;;11.40;6.68;;;8.40;81.70;;;;;;5035184;28;20029;-79
2021/12/16 09:23:52;;;;;;;13.10;6.30;;;8.30;81.20;;;;;;5034630;28;20053;-79
2021/12/16 09:26:18;;;;;;;10.77;5.78;;;8.30;81.00;;;;;;5034447;28;20064;-79
2021/12/16 09:28:45;;;;;;;12.25;6.80;;;8.40;81.30;;;;;;5033718;28;20022;-79
2021/12/16 09:31:18;;;;;;;10.13;5.07;;;8.40;81.00;;;;;;5035089;28;20025;-79
2021/12/16 09:33:48;;;;;;;15.00;7.55;;;8.50;80.80;;;;;;5035064;28;20033;-79
2021/12/16 09:36:16;;;;;;;10.25;5.43;;;8.50;81.00;;;;;;5035126;28;20460;-79
2021/12/16 09:38:44;;;;;;;8.55;5.35;;;8.50;80.40;;;;;;5034931;28;20026;-79
2021/12/16 09:41:10;;;;;;;10.35;5.25;;;8.50;80.20;;;;;;5035150;28;20029;-79
2021/12/16 09:43:40;;;;;;;7.07;4.60;;;8.50;80.10;;;;;;5040440;28;20017;-79
2021/12/16 09:46:09;;;;;;;9.10;5.93;;;8.60;80.10;;;;;;5055110;28;20028;-79
2021/12/16 09:48:36;;;;;;;12.33;6.60;;;8.60;79.80;;;;;;5041549;28;20043;-79
2021/12/16 09:51:05;;;;;;;9.05;5.18;;;8.70;79.60;;;;;;5034892;28;20021;-79
2021/12/16 09:53:32;;;;;;;9.57;6.15;;;8.60;79.50;;;;;;5034658;28;20077;-79
2021/12/16 09:56:00;;;;;;;10.63;6.35;;;8.70;79.70;;;;;;5034701;28;20029;-79
2021/12/16 09:58:29;;;;;;;10.55;6.32;;;8.70;79.90;;;;;;5034832;28;20040;-79
2021/12/16 10:00:55;;;;;;;7.75;5.38;;;8.80;79.60;;;;;;5034724;28;20053;-79
2021/12/16 10:03:21;;;;;;;11.77;6.97;;;8.80;79.30;;;;;;5034332;28;20116;-79
2021/12/16 10:05:48;;;;;;;8.48;5.82;;;8.80;79.00;;;;;;5034631;28;20036;-79
2021/12/16 10:08:14;;;;;;;6.78;4.57;;;8.90;79.00;;;;;;5034864;28;20507;-78
2021/12/16 10:10:40;;;;;;;10.85;6.30;;;8.90;79.00;;;;;;5034521;28;20018;-78
2021/12/16 10:13:07;;;;;;;6.00;4.20;;;8.90;79.00;;;;;;5034642;28;20036;-78
2021/12/16 10:18:08;;;;;;;8.75;5.57;;;9.00;79.40;;;;;;5034929;28;20476;-78
2021/12/16 10:20:39;;;;;;;8.25;5.22;;;8.90;78.60;;;;;;5033043;28;20504;-78
2021/12/16 10:23:16;;;;;;;7.22;4.70;;;9.00;78.20;;;;;;5034566;28;20075;-79
2021/12/16 10:25:48;;;;;;;8.50;5.70;;;9.00;77.90;;;;;;5032978;28;20060;-78
2021/12/16 10:28:29;;;;;;;7.03;4.50;;;9.00;77.50;;;;;;5034562;28;20053;-78
2021/12/16 10:31:09;;;;;;;11.18;5.88;;;9.10;77.50;;;;;;5034510;28;20097;-79
2021/12/16 10:33:37;;;;;;;11.32;6.82;;;9.20;77.30;;;;;;5034286;28;20037;-79
2021/12/16 10:36:05;;;;;;;11.43;6.40;;;9.20;77.30;;;;;;5043194;28;20099;-78
2021/12/16 10:38:55;;;;;;;7.82;5.78;;;9.40;77.50;;;;;;5034110;28;20056;-79
2021/12/16 10:41:28;;;;;;;11.07;6.28;;;9.50;76.70;;;;;;5037374;28;20042;-78
2021/12/16 10:44:07;;;;;;;8.27;5.47;;;9.50;76.30;;;;;;5047021;28;20031;-79
2021/12/16 10:46:40;;;;;;;11.55;6.68;;;9.20;76.30;;;;;;5047392;28;20372;-79
2021/12/16 10:49:13;;;;;;;10.15;6.68;;;9.30;76.40;;;;;;5036627;28;20117;-78
2021/12/16 10:51:48;;;;;;;10.15;7.00;;;9.40;76.70;;;;;;5036488;28;20068;-79
2021/12/16 10:54:18;;;;;;;9.80;6.68;;;9.60;77.00;;;;;;5037410;28;20063;-78
2021/12/16 10:56:57;;;;;;;10.63;6.40;;;9.50;76.30;;;;;;5037264;28;20021;-79
2021/12/16 10:59:23;;;;;;;7.20;5.20;;;9.40;75.90;;;;;;5039597;28;20205;-79
2021/12/16 11:01:59;;;;;;;11.05;6.10;;;9.40;75.90;;;;;;5057286;28;20029;-79
2021/12/16 11:04:34;;;;;;;8.30;4.07;;;9.50;76.00;;;;;;5057148;28;20021;-78
2021/12/16 11:07:31;;;;;;;10.75;6.30;;;9.50;75.50;;;;;;5051320;28;20025;-79
2021/12/16 11:10:06;;;;;;;7.07;3.75;;;9.50;75.90;;;;;;5037949;28;20022;-79
2021/12/16 11:12:41;;;;;;;7.10;4.60;;;9.40;75.20;;;;;;5037516;28;20053;-79
2021/12/16 11:15:35;;;;;;;9.40;5.47;;;9.40;75.80;;;;;;5037640;28;20025;-78
2021/12/16 11:18:13;;;;;;;6.57;4.30;;;9.40;75.40;;;;;;5036776;28;20045;-78
2021/12/16 11:20:53;;;;;;;8.23;5.18;;;9.70;74.90;;;;;;5037504;28;20041;-79
2021/12/16 11:23:21;;;;;;;8.05;4.47;;;9.80;74.60;;;;;;5037802;28;20105;-78
2021/12/16 11:25:52;;;;;;;10.27;5.72;;;9.80;74.30;;;;;;5035820;28;20029;-78
2021/12/16 11:28:23;;;;;;;8.57;5.45;;;9.80;74.40;;;;;;5037371;28;20021;-78
2021/12/16 11:30:48;;;;;;;;;;;10.00;74.30;;;;;;5037791;28;20119;-79
2021/12/16 11:33:28;;;;;;;13.82;6.50;;;10.10;75.10;;;;;;5037220;28;19909;-78
2021/12/16 11:36:04;;;;;;;7.43;4.88;;;10.10;74.50;;;;;;5049071;28;20432;-79
2021/12/16 11:38:49;;;;;;;9.82;5.80;;;10.10;73.30;;;;;;5037091;28;20069;-78
2021/12/16 11:41:40;;;;;;;7.78;4.82;;;10.20;73.70;;;;;;5035763;28;20093;-78
2021/12/16 11:44:23;;;;;;;8.75;4.90;;;10.20;73.40;;;;;;5048166;28;20064;-79
2021/12/16 11:46:53;;;;;;;10.70;5.72;;;10.10;74.20;;;;;;5036927;28;20045;-78
2021/12/16 11:49:30;;;;;;;9.77;6.25;;;10.20;74.50;;;;;;5037957;28;20017;-79
2021/12/16 11:51:56;;;;;;;8.02;5.25;;;10.40;73.70;;;;;;5056627;28;20064;-78
2021/12/16 11:54:34;;;;;;;9.43;5.28;;;10.30;73.40;;;;;;5053725;28;20072;-79
2021/12/16 11:57:15;;;;;;;8.07;5.63;;;10.50;73.80;;;;;;5056682;28;20041;-79
2021/12/16 11:59:43;;;;;;;6.82;4.40;;;10.50;73.60;;;;;;5041097;28;20083;-79
2021/12/16 12:02:36;;;;;;;7.65;5.07;;;10.50;72.80;;;;;;5036661;28;20053;-79
2021/12/16 12:05:28;;;;;;;7.38;4.88;;;10.50;73.20;;;;;;5043570;28;20029;-79
2021/12/16 12:08:14;;;;;;;9.88;4.85;;;10.50;73.10;;;;;;5039223;28;20032;-79
2021/12/16 12:10:51;;;;;;;7.97;4.72;;;10.50;72.60;;;;;;5056489;28;20435;-79
2021/12/16 12:13:19;;;;;;;7.70;4.53;;;10.60;72.80;;;;;;5056309;28;20033;-79
2021/12/16 12:15:50;;;;;;;8.48;5.13;;;10.70;73.60;;;;;;5045379;28;20034;-78
2021/12/16 12:18:29;;;;;;;7.80;4.80;;;10.70;72.80;;;;;;5036637;28;20026;-79
2021/12/16 12:21:22;;;;;;;7.32;4.35;;;10.70;72.30;;;;;;5036360;28;20052;-78
2021/12/16 12:23:53;;;;;;;7.88;5.40;;;10.80;72.80;;;;;;5034790;28;20029;-78
2021/12/16 12:26:20;;;;;;;4.97;3.92;;;10.90;72.60;;;;;;5035127;28;20028;-79
2021/12/16 12:29:03;;;;;;;5.22;3.45;;;10.80;71.40;;;;;;5035970;28;20021;-79
2021/12/16 12:31:31;;;;;;;4.70;3.45;;;10.90;71.30;;;;;;5035843;28;20056;-79
2021/12/16 12:33:57;;;;;;;7.03;4.13;;;10.90;71.70;;;;;;5038190;28;20395;-79
2021/12/16 12:36:24;;;;;;;6.10;3.53;;;10.90;71.60;;;;;;5075865;28;20082;-79
2021/12/16 12:38:51;;;;;;;9.60;4.85;;;10.80;71.80;;;;;;5076068;28;20033;-79
2021/12/16 12:41:17;;;;;;;9.40;5.55;;;10.80;72.60;;;;;;5040421;28;20029;-79
2021/12/16 12:43:44;;;;;;;8.60;5.07;;;10.80;72.50;;;;;;5043722;28;20455;-79
2021/12/16 12:46:12;;;;;;;6.82;5.00;;;10.90;72.90;;;;;;5054454;28;20494;-79
2021/12/16 12:48:39;;;;;;;5.75;3.95;;;10.90;72.30;;;;;;5054438;28;20036;-79
2021/12/16 12:51:07;;;;;;;6.75;4.65;;;10.80;72.00;;;;;;5053998;28;20035;-79
2021/12/16 12:53:36;;;;;;;6.28;3.72;;;10.80;72.50;;;;;;5052137;28;20052;-79
2021/12/16 12:56:28;;;;;;;13.85;4.38;;;10.80;72.30;;;;;;5035646;28;20029;-79
2021/12/16 12:59:11;;;;;;;7.35;4.22;;;10.80;72.60;;;;;;5035191;28;20026;-79
2021/12/16 13:01:49;;;;;;;9.18;3.45;;;10.80;73.10;;;;;;5035103;28;20089;-79
2021/12/16 13:04:15;;;;;;;6.82;4.90;;;10.50;72.00;;;;;;5035614;28;20103;-79
2021/12/16 13:07:09;;;;;;;5.65;3.88;;;10.60;73.00;;;;;;5035464;28;20029;-79
2021/12/16 13:09:48;;;;;;;4.72;4.03;;;10.70;72.00;;;;;;5034943;28;20041;-79
2021/12/16 13:12:37;;;;;;;6.80;4.55;;;10.70;72.20;;;;;;5035327;28;20087;-79
2021/12/16 13:26:48;;;;;;;4.93;3.70;;;10.70;72.70;;;;;;5035436;28;20108;-79
2021/12/16 13:34:48;;;;;;;6.13;3.92;;;10.80;72.70;;;;;;5060571;28;20020;-79
2021/12/16 13:37:35;;;;;;;4.15;3.47;;;10.80;72.40;;;;;;5075051;28;20034;-79
2021/12/16 13:40:32;;;;;;;6.40;4.13;;;10.80;72.20;;;;;;5041206;28;20028;-79
2021/12/16 13:43:05;;;;;;;13.40;7.13;;;10.70;72.30;;;;;;5036059;28;20068;-78
2021/12/16 13:45:50;;;;;;;5.82;3.70;;;10.70;72.50;;;;;;5054699;28;20057;-78
2021/12/16 14:06:19;;;;;;;4.28;3.45;;;10.80;72.80;;;;;;5034562;28;20100;-79
2021/12/16 14:08:52;;;;;;;4.93;3.35;;;10.80;72.70;;;;;;5034681;28;20033;-79
2021/12/16 14:17:48;;;;;;;5.72;3.50;;;10.70;73.10;;;;;;5038592;28;20082;-79
2021/12/16 14:23:08;;;;;;;9.05;3.83;;;10.80;73.20;;;;;;5038726;28;20068;-79
2021/12/16 14:31:16;;;;;;;7.97;3.75;;;10.80;73.40;;;;;;5038381;28;20067;-79
2021/12/16 14:34:51;;;;;;;5.03;3.92;;;10.80;73.30;;;;;;5038458;28;20029;-79
2021/12/16 14:39:58;;;;;;;5.90;3.40;;;10.60;73.10;;;;;;5058171;28;20036;-79
2021/12/16 14:50:27;;;;;;;6.05;3.55;;;10.70;73.80;;;;;;5045568;28;19905;-79
2021/12/16 14:52:54;;;;;;;6.85;4.25;;;10.70;74.10;;;;;;5037845;28;20058;-79
2021/12/16 14:55:21;;;;;;;6.28;3.45;;;10.60;73.80;;;;;;5037895;28;20407;-79
2021/12/16 14:57:52;;;;;;;8.48;4.40;;;10.60;73.50;;;;;;5037847;28;20025;-79
2021/12/16 15:00:30;;;;;;;6.38;4.03;;;10.40;73.80;;;;;;5037645;28;20035;-79
2021/12/16 15:03:17;;;;;;;12.48;5.03;;;10.40;74.80;;;;;;5037781;28;20029;-79
2021/12/16 15:05:50;;;;;;;8.30;5.13;;;10.50;74.50;;;;;;5037602;28;20022;-79
2021/12/16 15:08:36;;;;;;;7.70;5.15;;;10.50;74.80;;;;;;5037371;28;20022;-79
2021/12/16 15:11:05;;;;;;;8.35;4.95;;;10.50;74.70;;;;;;5037582;28;20070;-79
2021/12/16 15:13:50;;;;;;;8.20;4.22;;;10.50;74.30;;;;;;5052474;28;20022;-79
2021/12/16 15:17:13;;;;;;;6.88;4.40;;;10.50;74.20;;;;;;5037631;28;20828;-79
2021/12/16 15:36:31;;;;;;;7.82;4.55;;;10.50;74.70;;;;;;5044309;28;20395;-82
2021/12/16 15:39:10;;;;;;;6.82;4.28;;;10.50;74.80;;;;;;5042365;28;20033;-78
2021/12/16 15:44:20;;;;;;;9.43;5.22;;;10.50;74.90;;;;;;5038647;28;20052;-81
2021/12/16 15:46:53;;;;;;;9.02;4.15;;;10.40;74.90;;;;;;5044516;28;20536;-82
2021/12/16 15:49:23;;;;;;;6.30;4.25;;;10.50;75.30;;;;;;5040554;28;20399;-81
2021/12/16 15:51:53;;;;;;;7.78;3.85;;;10.40;74.60;;;;;;5045326;28;20036;-82
2021/12/16 15:54:19;;;;;;;9.13;4.82;;;10.40;75.00;;;;;;5055881;28;20186;-81
2021/12/16 15:56:47;;;;;;;7.43;4.85;;;10.30;74.70;;;;;;5043911;28;20057;-81
2021/12/16 15:59:17;;;;;;;9.90;4.95;;;10.40;75.00;;;;;;5044966;28;20044;-78
2021/12/16 16:01:49;;;;;;;7.33;4.60;;;10.40;74.90;;;;;;5044066;28;20032;-79
2021/12/16 16:04:20;;;;;;;6.63;3.88;;;10.30;74.70;;;;;;5047397;28;20294;-79
2021/12/16 16:06:52;;;;;;;6.00;3.85;;;10.30;74.60;;;;;;5051372;28;20025;-79
2021/12/16 16:09:18;;;;;;;9.63;4.15;;;10.30;74.70;;;;;;5042402;28;20109;-84
2021/12/16 16:11:51;;;;;;;6.95;3.40;;;10.30;74.80;;;;;;5043878;28;20091;-79
2021/12/16 16:14:19;;;;;;;8.10;3.53;;;10.30;74.40;;;;;;5052347;28;20065;-79
2021/12/16 16:16:50;;;;;;;6.47;4.00;;;10.30;75.10;;;;;;5039627;28;20029;-79
2021/12/16 16:19:34;;;;;;;7.35;3.95;;;10.30;75.10;;;;;;5036373;28;20021;-79
2021/12/16 16:22:03;;;;;;;6.90;4.47;;;10.30;75.10;;;;;;5036293;28;20044;-79
2021/12/16 16:24:52;;;;;;;9.33;4.17;;;10.40;75.10;;;;;;5034803;28;20083;-79
2021/12/16 16:27:23;;;;;;;6.90;4.30;;;10.30;75.20;;;;;;5036458;28;20025;-79
2021/12/16 16:29:52;;;;;;;6.53;3.95;;;10.30;75.10;;;;;;5036392;28;20032;-79
2021/12/16 16:32:18;;;;;;;6.32;4.03;;;10.30;75.10;;;;;;5036376;28;20581;-79
2021/12/16 16:34:49;;;;;;;6.93;3.60;;;10.30;74.80;;;;;;5061887;28;20453;-79
2021/12/16 16:37:28;;;;;;;9.15;5.25;;;10.30;74.80;;;;;;5059716;28;20111;-79
2021/12/16 16:40:09;;;;;;;6.68;3.83;;;10.30;75.00;;;;;;5036062;28;20075;-80
2021/12/16 16:42:41;;;;;;;7.63;4.22;;;10.30;75.00;;;;;;5041446;28;20079;-86
2021/12/16 16:45:18;;;;;;;7.82;4.80;;;10.30;75.20;;;;;;5041107;28;20045;-78
2021/12/16 16:47:52;;;;;;;9.73;4.97;;;10.30;74.60;;;;;;5045248;28;20103;-79
2021/12/16 16:50:21;;;;;;;7.97;4.30;;;10.30;74.90;;;;;;5045541;28;20021;-79
2021/12/16 16:52:50;;;;;;;10.07;5.10;;;10.30;75.10;;;;;;5038427;28;20740;-79
2021/12/16 16:55:23;;;;;;;7.05;4.55;;;10.40;75.30;;;;;;5043602;28;20029;-83
2021/12/16 16:57:54;;;;;;;11.35;6.15;;;10.40;75.10;;;;;;5048939;28;20060;-82
2021/12/16 17:00:22;;;;;;;13.18;6.25;;;10.30;75.10;;;;;;5056800;28;20029;-82
2021/12/16 17:02:54;;;;;;;6.68;4.15;;;10.30;75.40;;;;;;5039980;28;20095;-86
2021/12/16 17:05:30;;;;;;;9.25;5.13;;;10.30;75.10;;;;;;5051620;28;20025;-85